Time;durP1;ratioP1;P1;durP2;ratioP2;P2;SDS_P1;SDS_P2;PMS_P1;PMS_P2;Temp;Humidity;BMP_temperature;BMP_pressure;BME280_temperature;BME280_humidity;BME280_pressure;Samples;Min_cycle;Max_cycle;Signal;HPM_P1;HPM_P2
2022/01/05 00:01:25;;;;;;;1.83;1.07;;;7.20;99.90;;;;;;5038274;28;20228;-72
2022/01/05 00:03:51;;;;;;;1.00;0.90;;;7.20;99.90;;;;;;5024807;28;20308;-71
2022/01/05 00:06:16;;;;;;;1.60;1.27;;;7.20;99.90;;;;;;5028108;28;20467;-72
2022/01/05 00:08:42;;;;;;;1.07;0.97;;;7.10;99.90;;;;;;5026230;28;20451;-71
2022/01/05 00:11:10;;;;;;;5.40;1.27;;;7.10;99.90;;;;;;5027644;28;20248;-71
2022/01/05 00:13:36;;;;;;;0.90;0.90;;;7.10;99.90;;;;;;5027456;28;20224;-71
2022/01/05 00:16:01;;;;;;;0.93;0.93;;;7.10;99.90;;;;;;5030607;28;20470;-72
2022/01/05 00:18:27;;;;;;;1.23;0.83;;;7.10;99.90;;;;;;5026113;28;20228;-71
2022/01/05 00:20:53;;;;;;;1.27;0.83;;;7.10;99.90;;;;;;5033368;28;20245;-72
2022/01/05 00:23:18;;;;;;;1.57;1.00;;;7.10;99.90;;;;;;5028335;28;20244;-72
2022/01/05 00:25:44;;;;;;;0.83;0.83;;;7.10;99.90;;;;;;5023669;28;20215;-71
2022/01/05 00:28:10;;;;;;;1.17;1.07;;;7.10;99.90;;;;;;5057153;28;20286;-72
2022/01/05 00:30:36;;;;;;;1.10;0.87;;;7.20;99.90;;;;;;5050784;28;20699;-72
2022/01/05 00:33:02;;;;;;;0.70;0.70;;;7.20;99.90;;;;;;5067091;28;20246;-72
2022/01/05 00:35:27;;;;;;;0.60;0.60;;;7.10;99.90;;;;;;5033102;28;20632;-72
2022/01/05 00:37:53;;;;;;;1.23;0.80;;;7.10;99.90;;;;;;5031383;28;20517;-72
2022/01/05 00:40:19;;;;;;;0.80;0.57;;;7.10;99.90;;;;;;5031346;28;20303;-72
2022/01/05 00:42:45;;;;;;;0.60;0.60;;;7.10;99.90;;;;;;5030358;28;20309;-71
2022/01/05 00:45:11;;;;;;;0.67;0.67;;;7.10;99.90;;;;;;5022394;28;20229;-72
2022/01/05 00:47:36;;;;;;;0.50;0.50;;;7.10;99.90;;;;;;5020465;28;20468;-70
2022/01/05 00:50:02;;;;;;;0.77;0.77;;;7.10;99.90;;;;;;5028925;28;20224;-72
2022/01/05 00:52:28;;;;;;;0.70;0.70;;;7.10;99.90;;;;;;5007247;28;20241;-72
2022/01/05 00:54:54;;;;;;;0.50;0.50;;;7.10;99.90;;;;;;5008609;28;20456;-72
2022/01/05 00:57:19;;;;;;;3.90;0.50;;;7.10;99.90;;;;;;5007200;28;20674;-71
2022/01/05 00:59:45;;;;;;;0.47;0.47;;;7.10;99.90;;;;;;5011412;28;20247;-72
2022/01/05 01:02:11;;;;;;;0.50;0.50;;;7.00;99.90;;;;;;5026614;28;20225;-71
2022/01/05 01:04:36;;;;;;;0.60;0.40;;;7.00;99.90;;;;;;5027548;28;20229;-72
2022/01/05 01:07:02;;;;;;;0.63;0.47;;;7.00;99.90;;;;;;5010466;28;20240;-72
2022/01/05 01:09:28;;;;;;;1.00;0.57;;;6.90;99.90;;;;;;5010332;28;20224;-72
2022/01/05 01:11:54;;;;;;;0.90;0.60;;;6.90;99.90;;;;;;5027056;28;20498;-71
2022/01/05 01:14:19;;;;;;;3.70;0.60;;;6.90;99.90;;;;;;5026438;28;20233;-71
2022/01/05 01:16:45;;;;;;;0.93;0.50;;;6.80;99.90;;;;;;5011224;28;20224;-72
2022/01/05 01:19:11;;;;;;;0.70;0.50;;;6.80;99.90;;;;;;5012486;28;20282;-72
2022/01/05 01:21:37;;;;;;;0.60;0.57;;;6.80;99.90;;;;;;5010424;28;20239;-73
2022/01/05 01:24:03;;;;;;;0.63;0.50;;;6.90;99.90;;;;;;5027415;28;20509;-72
2022/01/05 01:26:30;;;;;;;0.40;0.37;;;6.90;99.90;;;;;;5007319;28;20225;-71
2022/01/05 01:28:57;;;;;;;0.50;0.50;;;6.80;99.90;;;;;;5025077;28;20467;-72
2022/01/05 01:31:24;;;;;;;0.50;0.50;;;6.80;99.90;;;;;;5009898;28;20543;-72
2022/01/05 01:33:50;;;;;;;0.80;0.70;;;6.80;99.90;;;;;;5046829;28;20462;-70
2022/01/05 01:36:17;;;;;;;0.50;0.40;;;6.80;99.90;;;;;;5046095;28;20455;-70
2022/01/05 01:38:43;;;;;;;1.00;0.90;;;6.80;99.90;;;;;;5023501;28;20531;-71
2022/01/05 01:41:10;;;;;;;1.53;1.03;;;6.80;99.90;;;;;;5041681;28;20531;-71
2022/01/05 01:43:36;;;;;;;5.33;0.73;;;6.80;99.90;;;;;;5009990;28;20448;-72
2022/01/05 01:46:05;;;;;;;1.37;0.70;;;6.70;99.90;;;;;;5024219;28;20523;-72
2022/01/05 01:48:31;;;;;;;0.80;0.60;;;6.70;99.90;;;;;;5017259;28;20975;-71
2022/01/05 01:50:58;;;;;;;2.20;0.47;;;6.70;99.90;;;;;;5022841;28;20452;-71
2022/01/05 01:53:23;;;;;;;0.70;0.60;;;6.70;99.90;;;;;;5006386;28;20521;-72
2022/01/05 01:55:50;;;;;;;0.93;0.83;;;6.60;99.90;;;;;;5032732;28;20538;-71
2022/01/05 01:58:21;;;;;;;0.73;0.60;;;6.60;99.90;;;;;;5029057;28;20240;-72
2022/01/05 02:00:47;;;;;;;0.60;0.60;;;6.60;99.90;;;;;;4996800;28;20501;-71
2022/01/05 02:03:14;;;;;;;0.80;0.80;;;6.60;99.90;;;;;;5032972;28;20459;-72
2022/01/05 02:05:40;;;;;;;2.10;0.73;;;6.50;99.90;;;;;;5032262;28;20235;-71
2022/01/05 02:08:06;;;;;;;0.50;0.50;;;6.30;99.90;;;;;;5052281;28;20467;-71
2022/01/05 02:10:31;;;;;;;0.77;0.77;;;6.10;99.90;;;;;;5003433;28;20477;-71
2022/01/05 02:12:57;;;;;;;1.77;0.97;;;6.10;99.90;;;;;;5026023;28;20233;-72
2022/01/05 02:15:23;;;;;;;1.33;1.10;;;6.00;99.90;;;;;;5025325;28;20221;-71
2022/01/05 02:20:31;;;;;;;0.90;0.90;;;5.90;99.90;;;;;;5008768;28;20660;-72
2022/01/05 02:22:57;;;;;;;0.90;0.90;;;5.80;99.90;;;;;;5025277;28;20464;-71
2022/01/05 02:25:24;;;;;;;1.00;1.00;;;5.90;99.90;;;;;;5025769;28;20468;-71
2022/01/05 02:27:52;;;;;;;1.33;1.23;;;5.90;99.90;;;;;;5022738;28;20464;-71
2022/01/05 02:30:23;;;;;;;1.43;1.23;;;5.80;99.90;;;;;;5031860;28;20460;-72
2022/01/05 02:32:49;;;;;;;0.97;0.97;;;5.90;99.90;;;;;;5020665;28;20464;-70
2022/01/05 02:35:15;;;;;;;1.10;1.10;;;5.80;99.90;;;;;;5028751;28;20455;-71
2022/01/05 02:37:47;;;;;;;1.27;1.17;;;5.80;99.90;;;;;;5052955;28;21006;-70
2022/01/05 02:40:15;;;;;;;1.30;1.20;;;5.70;99.90;;;;;;5017469;28;20460;-72
2022/01/05 02:42:42;;;;;;;1.63;1.00;;;5.70;99.90;;;;;;5008284;28;20487;-71
2022/01/05 02:45:09;;;;;;;1.33;1.23;;;5.70;99.90;;;;;;5025612;28;20817;-71
2022/01/05 02:47:36;;;;;;;0.97;0.97;;;5.70;99.90;;;;;;5011738;28;20486;-71
2022/01/05 02:50:03;;;;;;;1.17;1.00;;;5.70;99.90;;;;;;5024302;28;20466;-72
2022/01/05 02:52:29;;;;;;;0.80;0.80;;;5.70;99.90;;;;;;5028694;28;20502;-73
2022/01/05 02:54:55;;;;;;;0.90;0.90;;;5.60;99.90;;;;;;5046687;28;20543;-72
2022/01/05 02:57:20;;;;;;;0.87;0.87;;;5.70;99.90;;;;;;5028828;28;20234;-71
2022/01/05 02:59:46;;;;;;;0.90;0.80;;;5.70;99.90;;;;;;5020710;28;20221;-71
2022/01/05 03:02:12;;;;;;;0.93;0.93;;;5.70;99.90;;;;;;5037928;28;20239;-71
2022/01/05 03:04:38;;;;;;;1.30;1.20;;;5.70;99.90;;;;;;5047303;28;20269;-70
2022/01/05 03:07:04;;;;;;;2.37;0.93;;;5.70;99.90;;;;;;5015537;28;20259;-72
2022/01/05 03:09:30;;;;;;;1.43;0.73;;;5.70;99.90;;;;;;5022965;28;20464;-72
2022/01/05 03:11:56;;;;;;;1.20;1.10;;;5.60;99.90;;;;;;5007445;28;20484;-71
2022/01/05 03:14:22;;;;;;;0.77;0.70;;;5.60;99.90;;;;;;5020761;28;20260;-71
2022/01/05 03:16:48;;;;;;;0.80;0.80;;;5.60;99.90;;;;;;5033329;28;20234;-71
2022/01/05 03:19:14;;;;;;;0.70;0.60;;;5.60;99.90;;;;;;5053940;28;20241;-72
2022/01/05 03:21:39;;;;;;;0.70;0.70;;;5.60;99.90;;;;;;5032267;28;20502;-72
2022/01/05 03:24:05;;;;;;;0.50;0.50;;;5.60;99.90;;;;;;5039059;28;20240;-72
2022/01/05 03:26:31;;;;;;;0.90;0.60;;;5.60;99.90;;;;;;4996670;28;20225;-72
2022/01/05 03:28:57;;;;;;;1.90;0.57;;;5.60;99.90;;;;;;5037204;28;20248;-71
2022/01/05 03:31:22;;;;;;;0.50;0.50;;;5.60;99.90;;;;;;5053926;28;20602;-71
2022/01/05 03:33:48;;;;;;;0.70;0.70;;;5.60;99.90;;;;;;5040516;28;20576;-70
2022/01/05 03:36:14;;;;;;;1.07;0.97;;;5.50;99.90;;;;;;5044770;28;20557;-71
2022/01/05 03:38:40;;;;;;;0.60;0.60;;;5.50;99.90;;;;;;5036763;28;20280;-70
2022/01/05 03:41:05;;;;;;;1.00;0.70;;;5.50;99.90;;;;;;5013974;28;20229;-71
2022/01/05 03:43:31;;;;;;;0.90;0.70;;;5.50;99.90;;;;;;5028128;28;20252;-71
2022/01/05 03:45:57;;;;;;;0.63;0.63;;;5.50;99.90;;;;;;5002343;28;20299;-71
2022/01/05 03:48:23;;;;;;;1.30;0.60;;;5.50;99.90;;;;;;5009272;28;20251;-71
2022/01/05 03:50:48;;;;;;;0.80;0.60;;;5.40;99.90;;;;;;5012799;28;20745;-70
2022/01/05 03:53:14;;;;;;;0.60;0.60;;;5.40;99.90;;;;;;5020353;28;20538;-71
2022/01/05 03:55:43;;;;;;;1.30;0.97;;;5.50;99.90;;;;;;5037115;28;20312;-70
2022/01/05 03:58:10;;;;;;;0.70;0.70;;;5.40;99.90;;;;;;5014990;28;20468;-72
2022/01/05 04:00:39;;;;;;;0.80;0.70;;;5.40;99.90;;;;;;4991100;28;20518;-70
2022/01/05 04:03:05;;;;;;;0.60;0.40;;;5.50;99.90;;;;;;5015225;28;20543;-71
2022/01/05 04:05:31;;;;;;;2.73;1.17;;;5.50;99.90;;;;;;5006520;28;20951;-71
2022/01/05 04:07:57;;;;;;;3.87;1.70;;;5.40;99.90;;;;;;5021959;28;20240;-71
2022/01/05 04:10:24;;;;;;;2.20;1.73;;;5.40;99.90;;;;;;5012456;28;20217;-72
2022/01/05 04:12:49;;;;;;;4.00;1.20;;;5.40;99.90;;;;;;4997730;28;20235;-70
2022/01/05 04:15:17;;;;;;;2.50;0.80;;;5.40;99.90;;;;;;5031541;28;20444;-71
2022/01/05 04:17:43;;;;;;;2.60;0.93;;;5.30;99.90;;;;;;5031326;28;20228;-71
2022/01/05 04:20:11;;;;;;;2.43;0.83;;;5.30;99.90;;;;;;5033305;28;20505;-71
2022/01/05 04:22:36;;;;;;;1.17;0.80;;;5.30;99.90;;;;;;5028492;28;20494;-71
2022/01/05 04:25:03;;;;;;;1.10;0.93;;;5.30;99.90;;;;;;5024916;28;20894;-72
2022/01/05 04:27:29;;;;;;;1.43;0.70;;;5.30;99.90;;;;;;5023464;28;20267;-72
2022/01/05 04:29:54;;;;;;;1.50;1.20;;;5.30;99.90;;;;;;5041431;28;20895;-71
2022/01/05 04:32:20;;;;;;;1.20;0.50;;;5.30;99.90;;;;;;5030814;28;20228;-71
2022/01/05 04:34:46;;;;;;;1.17;0.87;;;5.30;99.90;;;;;;5039034;28;20243;-70
2022/01/05 04:37:11;;;;;;;3.00;0.70;;;5.30;99.90;;;;;;5041305;28;20278;-71
2022/01/05 04:39:37;;;;;;;1.07;0.50;;;5.30;99.90;;;;;;5020318;28;20232;-71
2022/01/05 04:42:03;;;;;;;1.00;0.90;;;5.30;99.90;;;;;;4992826;28;20230;-71
2022/01/05 04:44:30;;;;;;;0.90;0.70;;;5.30;99.90;;;;;;5006939;28;20608;-72
2022/01/05 04:46:56;;;;;;;2.60;0.67;;;5.30;99.90;;;;;;5020286;28;20479;-72
2022/01/05 04:49:22;;;;;;;2.20;0.70;;;5.20;99.90;;;;;;5031334;28;20464;-72
2022/01/05 04:51:48;;;;;;;0.53;0.50;;;5.20;99.90;;;;;;5026819;28;20476;-71
2022/01/05 04:54:13;;;;;;;1.30;0.73;;;5.20;99.90;;;;;;5027357;28;20271;-71
2022/01/05 04:56:39;;;;;;;0.50;0.50;;;5.10;99.90;;;;;;5024152;28;20233;-71
2022/01/05 04:59:05;;;;;;;1.37;0.47;;;5.10;99.90;;;;;;5041238;28;20236;-71
2022/01/05 05:01:30;;;;;;;1.07;0.80;;;5.10;99.90;;;;;;5006194;28;20715;-71
2022/01/05 05:03:56;;;;;;;0.83;0.83;;;5.00;99.90;;;;;;5010876;28;20225;-71
2022/01/05 05:06:22;;;;;;;0.60;0.60;;;4.90;99.90;;;;;;5030177;28;20241;-72
2022/01/05 05:08:49;;;;;;;0.80;0.80;;;4.90;99.90;;;;;;5039370;28;20225;-71
2022/01/05 05:11:16;;;;;;;1.17;0.80;;;4.90;99.90;;;;;;5032382;28;21080;-70
2022/01/05 05:13:41;;;;;;;2.23;1.23;;;4.80;99.90;;;;;;5012454;28;20468;-71
2022/01/05 05:16:07;;;;;;;0.90;0.83;;;4.80;99.90;;;;;;5054642;28;20460;-71
2022/01/05 05:18:33;;;;;;;0.67;0.60;;;4.70;99.90;;;;;;5046978;28;20218;-71
2022/01/05 05:20:59;;;;;;;1.17;0.63;;;4.70;99.90;;;;;;5033488;28;20221;-72
2022/01/05 05:23:25;;;;;;;4.63;1.23;;;4.70;99.90;;;;;;5026771;28;21065;-71
2022/01/05 05:25:51;;;;;;;1.00;0.87;;;4.70;99.90;;;;;;5046504;28;20443;-70
2022/01/05 05:28:17;;;;;;;3.63;1.40;;;4.70;99.90;;;;;;5030237;28;20299;-71
2022/01/05 05:30:43;;;;;;;1.03;0.77;;;4.70;99.90;;;;;;5032621;28;20228;-69
2022/01/05 05:33:09;;;;;;;1.23;0.70;;;4.80;99.90;;;;;;5031588;28;20233;-70
2022/01/05 05:35:34;;;;;;;0.80;0.80;;;4.80;99.90;;;;;;5009130;28;20471;-71
2022/01/05 05:38:01;;;;;;;1.93;1.13;;;4.70;99.90;;;;;;5017238;28;20471;-72
2022/01/05 05:40:26;;;;;;;1.43;0.70;;;4.80;99.90;;;;;;5027140;28;20235;-71
2022/01/05 05:42:52;;;;;;;3.93;1.10;;;4.70;99.90;;;;;;5043348;28;20460;-71
2022/01/05 05:45:18;;;;;;;1.17;1.00;;;4.70;99.90;;;;;;5007983;28;20257;-71
2022/01/05 05:47:44;;;;;;;1.17;1.07;;;4.70;99.90;;;;;;5027474;28;20224;-70
2022/01/05 05:50:10;;;;;;;0.87;0.73;;;4.70;99.90;;;;;;5011484;28;20324;-71
2022/01/05 05:52:36;;;;;;;1.03;0.90;;;4.80;99.90;;;;;;5021466;28;20240;-71
2022/01/05 05:55:03;;;;;;;1.10;1.00;;;4.80;99.90;;;;;;5030781;28;20452;-71
2022/01/05 05:57:29;;;;;;;2.40;1.33;;;4.70;99.90;;;;;;5026438;28;20251;-72
2022/01/05 05:59:54;;;;;;;8.03;1.30;;;4.70;99.90;;;;;;5009556;28;20463;-71
2022/01/05 06:02:20;;;;;;;1.20;1.13;;;4.80;99.90;;;;;;5015082;28;20225;-70
2022/01/05 06:04:46;;;;;;;1.80;1.20;;;4.80;99.90;;;;;;5003725;28;20218;-70
2022/01/05 06:07:11;;;;;;;1.23;0.90;;;4.80;99.90;;;;;;5012144;28;20228;-71
2022/01/05 06:09:37;;;;;;;1.40;1.30;;;4.80;99.90;;;;;;5024222;28;20257;-70
2022/01/05 06:12:03;;;;;;;2.83;1.27;;;4.80;99.90;;;;;;5029233;28;20236;-71
2022/01/05 06:14:29;;;;;;;1.53;1.17;;;4.80;99.90;;;;;;5037011;28;20335;-71
2022/01/05 06:16:55;;;;;;;2.27;1.40;;;4.80;99.90;;;;;;5045877;28;20546;-71
2022/01/05 06:19:20;;;;;;;2.40;1.47;;;4.80;99.90;;;;;;5042694;28;20220;-71
2022/01/05 06:21:47;;;;;;;1.10;1.10;;;4.80;99.90;;;;;;5028410;28;20594;-71
2022/01/05 06:24:13;;;;;;;1.80;1.10;;;4.80;99.90;;;;;;5046504;28;20663;-70
2022/01/05 06:26:39;;;;;;;2.40;1.30;;;4.80;99.90;;;;;;5000941;28;20535;-70
2022/01/05 06:29:04;;;;;;;1.53;1.40;;;4.80;99.90;;;;;;5015564;28;20256;-70
2022/01/05 06:31:30;;;;;;;2.30;1.27;;;4.70;99.90;;;;;;5014658;28;20526;-72
2022/01/05 06:33:56;;;;;;;2.13;1.27;;;4.70;99.90;;;;;;5024565;28;20241;-72
2022/01/05 06:36:22;;;;;;;2.43;1.20;;;4.60;99.90;;;;;;5014889;28;20518;-71
2022/01/05 06:38:47;;;;;;;2.83;1.83;;;4.50;99.90;;;;;;5017939;28;20221;-70
2022/01/05 06:41:13;;;;;;;1.53;1.30;;;4.30;99.90;;;;;;5029269;28;20213;-71
2022/01/05 06:43:39;;;;;;;2.87;1.00;;;4.20;99.90;;;;;;5015682;28;20219;-70
2022/01/05 06:46:05;;;;;;;2.67;1.47;;;4.10;99.90;;;;;;5006589;28;20228;-72
2022/01/05 06:48:30;;;;;;;1.20;0.93;;;4.00;99.90;;;;;;5005295;28;20209;-72
2022/01/05 06:50:56;;;;;;;4.30;1.20;;;4.00;99.90;;;;;;5010515;28;20316;-72
2022/01/05 06:53:22;;;;;;;1.90;1.20;;;4.10;99.90;;;;;;5034444;28;20260;-72
2022/01/05 06:55:48;;;;;;;1.03;0.83;;;4.10;99.90;;;;;;5006894;28;20241;-71
2022/01/05 06:58:13;;;;;;;2.13;1.23;;;4.10;99.90;;;;;;5025183;28;20303;-72
2022/01/05 07:00:39;;;;;;;1.50;1.40;;;4.10;99.90;;;;;;5009040;28;20312;-72
2022/01/05 07:03:05;;;;;;;5.03;1.17;;;4.10;99.90;;;;;;5022658;28;20225;-72
2022/01/05 07:05:32;;;;;;;2.03;1.70;;;4.20;99.90;;;;;;5024853;28;20225;-71
2022/01/05 07:07:58;;;;;;;3.20;1.63;;;4.20;99.90;;;;;;5037161;28;20452;-70
2022/01/05 07:10:24;;;;;;;2.57;1.63;;;4.20;99.90;;;;;;5032645;28;20472;-71
2022/01/05 07:12:49;;;;;;;1.27;1.17;;;4.20;99.90;;;;;;5005692;28;20468;-70
2022/01/05 07:15:15;;;;;;;3.03;1.90;;;4.20;99.90;;;;;;5017299;28;20452;-72
2022/01/05 07:17:41;;;;;;;2.97;2.30;;;4.30;99.90;;;;;;5025192;28;20224;-71
2022/01/05 07:20:09;;;;;;;4.53;2.00;;;4.30;99.90;;;;;;5018515;28;20514;-72
2022/01/05 07:22:36;;;;;;;3.57;1.67;;;4.10;99.90;;;;;;5002526;28;20233;-71
2022/01/05 07:25:03;;;;;;;3.43;1.73;;;4.10;99.90;;;;;;5016054;28;20475;-72
2022/01/05 07:27:29;;;;;;;2.60;1.37;;;3.90;99.90;;;;;;5021956;28;20468;-71
2022/01/05 07:29:55;;;;;;;2.50;1.73;;;3.70;99.90;;;;;;5032673;28;20518;-71
2022/01/05 07:32:20;;;;;;;2.57;1.20;;;3.70;99.90;;;;;;5022221;28;20631;-71
2022/01/05 07:34:46;;;;;;;1.60;1.37;;;3.60;99.90;;;;;;5022182;28;20291;-71
2022/01/05 07:37:12;;;;;;;1.17;1.00;;;3.60;99.90;;;;;;5021655;28;20232;-72
2022/01/05 07:39:39;;;;;;;2.40;1.30;;;3.50;99.90;;;;;;4989465;28;20460;-71
2022/01/05 07:42:08;;;;;;;1.30;1.20;;;3.40;99.90;;;;;;5002109;28;20221;-70
2022/01/05 07:44:34;;;;;;;2.20;1.33;;;3.40;99.90;;;;;;4989738;28;21008;-71
2022/01/05 07:47:00;;;;;;;4.53;1.87;;;3.40;99.90;;;;;;4995739;28;20452;-71
2022/01/05 07:49:25;;;;;;;2.37;1.37;;;3.30;99.90;;;;;;5022468;28;20221;-70
2022/01/05 07:51:51;;;;;;;2.77;1.57;;;3.20;99.90;;;;;;5021722;28;20241;-70
2022/01/05 07:54:17;;;;;;;3.57;1.33;;;3.20;99.90;;;;;;5023147;28;20233;-71
2022/01/05 07:56:43;;;;;;;6.40;1.40;;;3.20;99.90;;;;;;5020040;28;20236;-71
2022/01/05 07:59:08;;;;;;;2.73;1.27;;;3.20;99.90;;;;;;5017236;28;20501;-70
2022/01/05 08:01:34;;;;;;;1.23;1.00;;;3.10;99.90;;;;;;5025303;28;20213;-70
2022/01/05 08:04:00;;;;;;;2.10;1.10;;;3.10;99.90;;;;;;5021213;28;20267;-71
2022/01/05 08:06:26;;;;;;;5.23;1.57;;;3.10;99.90;;;;;;5024975;28;20596;-71
2022/01/05 08:08:51;;;;;;;4.47;1.33;;;3.10;99.90;;;;;;5026665;28;20301;-71
2022/01/05 08:11:18;;;;;;;1.97;1.50;;;3.00;99.90;;;;;;5039873;28;20220;-70
2022/01/05 08:13:44;;;;;;;3.93;1.53;;;3.10;99.90;;;;;;5021364;28;20229;-71
2022/01/05 08:16:11;;;;;;;2.20;1.03;;;3.10;99.90;;;;;;5025462;28;20460;-71
2022/01/05 08:18:37;;;;;;;5.80;1.97;;;3.10;99.90;;;;;;5026121;28;20518;-72
2022/01/05 08:21:03;;;;;;;2.47;1.60;;;3.20;99.90;;;;;;5021964;28;20457;-72
2022/01/05 08:23:29;;;;;;;6.40;2.00;;;3.30;99.90;;;;;;4977664;28;20222;-71
2022/01/05 08:25:55;;;;;;;1.50;1.40;;;3.30;99.90;;;;;;4998153;28;20460;-71
2022/01/05 08:28:21;;;;;;;4.17;1.50;;;3.30;99.90;;;;;;5025978;28;20462;-71
2022/01/05 08:30:47;;;;;;;2.77;1.70;;;3.20;99.90;;;;;;5024485;28;20457;-71
2022/01/05 08:33:14;;;;;;;3.37;1.43;;;3.30;99.90;;;;;;5015826;28;20471;-71
2022/01/05 08:35:41;;;;;;;3.80;2.67;;;3.30;99.90;;;;;;5024067;28;20253;-71
2022/01/05 08:38:07;;;;;;;5.40;2.67;;;3.30;99.90;;;;;;5020530;28;20477;-71
2022/01/05 08:40:35;;;;;;;10.00;1.77;;;3.40;99.90;;;;;;5028236;28;20452;-72
2022/01/05 08:43:03;;;;;;;1.90;1.80;;;3.40;99.90;;;;;;5023332;28;20444;-72
2022/01/05 08:45:29;;;;;;;6.00;1.77;;;3.40;99.90;;;;;;5013138;28;20534;-72
2022/01/05 08:47:56;;;;;;;3.20;1.97;;;3.40;99.90;;;;;;5022624;28;20482;-71
2022/01/05 08:50:24;;;;;;;2.30;1.40;;;3.30;99.90;;;;;;5002212;28;20456;-71
2022/01/05 08:52:51;;;;;;;2.60;1.60;;;3.40;99.90;;;;;;5019364;28;20471;-70
2022/01/05 08:55:19;;;;;;;2.97;1.80;;;3.40;99.90;;;;;;5017991;28;20456;-72
2022/01/05 08:57:46;;;;;;;2.13;1.70;;;3.40;99.90;;;;;;5021089;28;20830;-70
2022/01/05 09:00:12;;;;;;;2.23;1.53;;;3.40;99.90;;;;;;5003828;28;20497;-70
2022/01/05 09:02:39;;;;;;;15.37;5.90;;;3.40;99.90;;;;;;4991933;28;20448;-71
2022/01/05 09:05:05;;;;;;;7.50;4.83;;;3.40;99.90;;;;;;5013269;28;20483;-71
2022/01/05 09:07:31;;;;;;;2.50;2.30;;;3.40;99.90;;;;;;5004762;28;20464;-71
2022/01/05 09:09:57;;;;;;;2.57;1.63;;;3.40;99.90;;;;;;5007623;28;20472;-71
2022/01/05 09:12:23;;;;;;;7.97;2.87;;;3.40;99.90;;;;;;5005254;28;20251;-72
2022/01/05 09:14:49;;;;;;;3.80;2.23;;;3.40;99.90;;;;;;5003514;28;20459;-70
2022/01/05 09:17:16;;;;;;;12.43;3.20;;;3.40;99.90;;;;;;4994236;28;20461;-72
2022/01/05 09:19:42;;;;;;;1.93;1.70;;;3.40;99.90;;;;;;4998748;28;21070;-72
2022/01/05 09:22:08;;;;;;;2.10;1.23;;;3.50;99.90;;;;;;4998669;28;20473;-70
2022/01/05 09:24:36;;;;;;;4.37;1.37;;;3.50;99.90;;;;;;4995744;28;20518;-71
2022/01/05 09:27:04;;;;;;;1.40;1.30;;;3.50;99.90;;;;;;4984805;28;20453;-71
2022/01/05 09:29:30;;;;;;;9.20;4.90;;;3.50;99.90;;;;;;5003651;28;20518;-72
2022/01/05 09:31:58;;;;;;;8.20;4.87;;;3.50;99.90;;;;;;5020349;28;20476;-71
2022/01/05 09:34:24;;;;;;;13.00;6.77;;;3.60;99.90;;;;;;5015658;28;20469;-71
2022/01/05 09:36:58;;;;;;;14.97;9.40;;;3.60;99.90;;;;;;5003775;28;20504;-71
2022/01/05 09:42:08;;;;;;;3.63;2.40;;;3.60;99.90;;;;;;5018370;28;20496;-72
2022/01/05 09:44:42;;;;;;;3.00;2.70;;;3.60;99.90;;;;;;5021208;28;20491;-71
2022/01/05 09:47:11;;;;;;;5.77;2.17;;;3.70;99.90;;;;;;5028429;28;20220;-72
2022/01/05 09:49:40;;;;;;;1.50;1.40;;;3.70;99.90;;;;;;5056466;28;20451;-71
2022/01/05 09:52:10;;;;;;;6.20;2.50;;;3.70;99.90;;;;;;5037913;28;20474;-71
2022/01/05 09:54:42;;;;;;;2.10;1.53;;;3.70;99.90;;;;;;5041286;28;20494;-71
2022/01/05 09:57:13;;;;;;;5.20;2.33;;;3.70;99.90;;;;;;5024255;28;20493;-72
2022/01/05 09:59:39;;;;;;;2.20;1.83;;;3.70;99.90;;;;;;5029825;28;20470;-72
2022/01/05 10:02:06;;;;;;;3.03;2.27;;;3.70;99.90;;;;;;5006692;28;20461;-71
2022/01/05 10:04:38;;;;;;;2.20;2.00;;;3.60;99.90;;;;;;5022590;28;20483;-70
2022/01/05 10:07:04;;;;;;;2.00;1.80;;;3.60;99.90;;;;;;5036214;28;21012;-70
2022/01/05 10:09:30;;;;;;;5.93;4.30;;;3.60;99.90;;;;;;5013529;28;20483;-71
2022/01/05 10:11:56;;;;;;;10.23;6.00;;;3.70;99.90;;;;;;5038429;28;20263;-71
2022/01/05 10:14:22;;;;;;;13.70;7.37;;;3.70;99.90;;;;;;5042209;28;20207;-72
2022/01/05 10:17:08;;;;;;;17.93;8.33;;;3.70;99.90;;;;;;5035322;28;20260;-70
2022/01/05 10:19:35;;;;;;;11.10;5.87;;;3.70;99.90;;;;;;4981720;28;20677;-71
2022/01/05 10:22:02;;;;;;;4.93;3.10;;;3.70;99.90;;;;;;4995064;28;20463;-70
2022/01/05 10:25:01;;;;;;;5.03;2.23;;;3.70;99.90;;;;;;5006006;28;20467;-71
2022/01/05 10:27:29;;;;;;;6.70;2.30;;;3.60;99.90;;;;;;4967368;28;20444;-71
2022/01/05 10:30:07;;;;;;;3.80;3.03;;;3.60;99.90;;;;;;5042455;28;20439;-72
2022/01/05 10:32:34;;;;;;;6.30;2.50;;;3.60;99.90;;;;;;5032953;28;21015;-72
2022/01/05 10:35:05;;;;;;;11.17;3.80;;;3.50;99.90;;;;;;5032128;28;20467;-72
2022/01/05 10:37:31;;;;;;;3.30;3.00;;;3.50;99.90;;;;;;5015461;28;20479;-72
2022/01/05 10:40:11;;;;;;;2.83;2.50;;;3.50;99.90;;;;;;5024840;28;20475;-71
2022/01/05 10:42:38;;;;;;;3.33;1.33;;;3.50;99.90;;;;;;5001321;28;20460;-71
2022/01/05 10:45:06;;;;;;;17.90;5.90;;;3.50;99.90;;;;;;5029000;28;20459;-71
2022/01/05 10:47:33;;;;;;;18.17;11.03;;;3.40;99.90;;;;;;5022078;28;20455;-72
2022/01/05 10:49:59;;;;;;;26.73;17.37;;;3.40;99.90;;;;;;5034092;28;20517;-71
2022/01/05 10:52:33;;;;;;;20.10;14.00;;;3.40;99.90;;;;;;5042056;28;20459;-70
2022/01/05 10:55:12;;;;;;;8.60;6.70;;;3.40;99.90;;;;;;5032150;28;20278;-71
2022/01/05 10:57:53;;;;;;;7.23;5.33;;;3.40;99.90;;;;;;5006160;28;20838;-71
2022/01/05 11:00:34;;;;;;;11.03;7.20;;;3.40;99.90;;;;;;5027744;28;20460;-70
2022/01/05 11:03:01;;;;;;;10.13;6.40;;;3.40;99.90;;;;;;5037253;28;20450;-71
2022/01/05 11:05:27;;;;;;;4.33;3.63;;;3.40;99.90;;;;;;5038970;28;20460;-71
2022/01/05 11:08:06;;;;;;;5.17;2.40;;;3.50;99.90;;;;;;5029309;28;20459;-71
2022/01/05 11:10:32;;;;;;;2.20;1.80;;;3.50;99.90;;;;;;5020590;28;20460;-71
2022/01/05 11:12:57;;;;;;;2.33;1.57;;;3.50;99.90;;;;;;4994456;28;20484;-71
2022/01/05 11:15:31;;;;;;;3.00;1.73;;;3.50;99.90;;;;;;5005637;28;20213;-71
2022/01/05 11:18:10;;;;;;;6.57;3.23;;;3.50;99.90;;;;;;4999904;28;20230;-71
2022/01/05 11:21:01;;;;;;;3.73;3.00;;;3.50;99.90;;;;;;5005352;28;20468;-70
2022/01/05 11:23:28;;;;;;;15.77;7.70;;;3.50;99.90;;;;;;5027226;28;20475;-72
2022/01/05 11:25:56;;;;;;;16.63;9.00;;;3.50;99.90;;;;;;5010679;28;20519;-70
2022/01/05 11:28:23;;;;;;;15.73;8.07;;;3.50;99.90;;;;;;4997688;28;20456;-71
2022/01/05 11:30:52;;;;;;;15.50;6.93;;;3.40;99.90;;;;;;5010366;28;20523;-70
2022/01/05 11:33:18;;;;;;;11.57;4.40;;;3.40;99.90;;;;;;5013963;28;20464;-72
2022/01/05 11:35:44;;;;;;;17.80;7.50;;;3.40;99.90;;;;;;5006272;28;20467;-71
2022/01/05 11:38:11;;;;;;;6.70;3.50;;;3.40;99.90;;;;;;5023946;28;20877;-71
2022/01/05 11:40:51;;;;;;;1.70;1.60;;;3.50;99.90;;;;;;5019303;28;20486;-72
2022/01/05 11:43:33;;;;;;;3.27;1.37;;;3.50;99.90;;;;;;5020566;28;20892;-70
2022/01/05 11:46:16;;;;;;;2.90;1.30;;;3.50;99.90;;;;;;5004080;28;20453;-72
2022/01/05 11:49:02;;;;;;;1.60;0.87;;;3.40;99.90;;;;;;5016310;28;20549;-69
2022/01/05 11:51:32;;;;;;;1.97;1.50;;;3.50;99.90;;;;;;5010452;28;20949;-71
2022/01/05 11:54:16;;;;;;;1.93;1.50;;;3.50;99.90;;;;;;5024873;28;20451;-71
2022/01/05 11:56:47;;;;;;;3.60;1.93;;;3.50;99.90;;;;;;5023468;28;20452;-70
2022/01/05 11:59:36;;;;;;;2.40;1.77;;;3.50;99.90;;;;;;5021717;28;20457;-72
2022/01/05 12:02:14;;;;;;;1.80;1.70;;;3.50;99.90;;;;;;5005984;28;20462;-71
2022/01/05 12:04:57;;;;;;;2.90;1.43;;;3.40;99.90;;;;;;5022768;28;20448;-71
2022/01/05 12:07:35;;;;;;;2.63;1.30;;;3.50;99.90;;;;;;5023687;28;20474;-71
2022/01/05 12:10:21;;;;;;;4.37;1.70;;;3.50;99.90;;;;;;5023013;28;20447;-71
2022/01/05 12:13:02;;;;;;;2.10;1.03;;;3.50;99.90;;;;;;5012684;28;20521;-69
2022/01/05 12:15:47;;;;;;;1.37;1.10;;;3.50;99.90;;;;;;5019999;28;20487;-70
2022/01/05 12:18:21;;;;;;;2.93;1.40;;;3.50;99.90;;;;;;5017466;28;20471;-71
2022/01/05 12:20:47;;;;;;;2.10;1.60;;;3.40;99.90;;;;;;4996912;28;20456;-70
2022/01/05 12:23:25;;;;;;;36.70;16.67;;;3.50;99.90;;;;;;4994501;28;20499;-71
2022/01/05 12:26:03;;;;;;;53.40;22.40;;;3.50;99.90;;;;;;5035211;28;20227;-71
2022/01/05 12:28:32;;;;;;;26.70;12.57;;;3.50;99.90;;;;;;4985988;28;20452;-71
2022/01/05 12:30:58;;;;;;;14.33;7.70;;;3.50;99.90;;;;;;5051423;28;20463;-71
2022/01/05 12:33:25;;;;;;;11.33;6.33;;;3.50;99.90;;;;;;5035883;28;20476;-71
2022/01/05 12:36:01;;;;;;;9.73;4.80;;;3.50;99.90;;;;;;5021112;28;20449;-71
2022/01/05 12:38:30;;;;;;;8.33;3.93;;;3.50;99.90;;;;;;5025865;28;20452;-71
2022/01/05 12:40:56;;;;;;;4.73;3.60;;;3.50;99.90;;;;;;5024483;28;20448;-72
2022/01/05 12:43:24;;;;;;;4.23;2.90;;;3.50;99.90;;;;;;5030407;28;20448;-71
2022/01/05 12:45:57;;;;;;;2.83;2.47;;;3.50;99.90;;;;;;5037567;28;20302;-71
2022/01/05 12:48:36;;;;;;;5.27;2.17;;;3.50;99.90;;;;;;5028908;28;20448;-72
2022/01/05 12:54:06;;;;;;;1.47;1.17;;;3.50;99.90;;;;;;5034478;28;20467;-72
2022/01/05 12:57:02;;;;;;;2.90;1.40;;;3.60;99.90;;;;;;5010006;28;20457;-72
2022/01/05 12:59:32;;;;;;;1.93;1.47;;;3.50;99.90;;;;;;5014726;28;21001;-71
2022/01/05 13:02:00;;;;;;;1.10;1.10;;;3.60;99.90;;;;;;5020704;28;20448;-71
2022/01/05 13:04:26;;;;;;;3.23;0.97;;;3.50;99.90;;;;;;5042384;28;20455;-72
2022/01/05 13:07:00;;;;;;;1.97;1.47;;;3.50;99.90;;;;;;5021169;28;20458;-71